createdAt,value
2023-02-01T00:01:18.892Z,5.20
2023-02-01T00:03:31.882Z,5.10
2023-02-01T00:05:45.078Z,6.90
2023-02-01T00:07:57.916Z,4.80
2023-02-01T00:10:12.046Z,5.40
2023-02-01T00:12:24.821Z,4.00
2023-02-01T00:14:40.713Z,6.80
2023-02-01T00:16:56.188Z,6.10
2023-02-01T00:19:10.570Z,9.40
2023-02-01T00:21:25.123Z,3.30
2023-02-01T00:23:39.148Z,3.60
2023-02-01T00:25:51.859Z,3.70
2023-02-01T00:28:04.669Z,3.90
2023-02-01T00:30:20.694Z,2.50
2023-02-01T00:32:34.401Z,4.60
2023-02-01T00:34:48.079Z,4.10
2023-02-01T00:37:02.448Z,9.30
2023-02-01T00:39:15.692Z,7.40
2023-02-01T00:41:29.372Z,5.40
2023-02-01T00:43:43.407Z,5.90
2023-02-01T00:45:56.686Z,6.00
2023-02-01T00:48:10.564Z,5.60
2023-02-01T00:50:25.241Z,5.20
2023-02-01T00:52:38.433Z,4.80
2023-02-01T00:54:51.208Z,5.30
2023-02-01T00:57:04.005Z,5.90
2023-02-01T00:59:17.873Z,6.70
2023-02-01T01:01:32.140Z,6.50
2023-02-01T01:03:47.395Z,5.40
2023-02-01T01:06:04.261Z,5.20
2023-02-01T01:08:17.586Z,9.40
2023-02-01T01:10:30.645Z,3.20
2023-02-01T01:12:43.534Z,7.40
2023-02-01T01:14:56.602Z,5.90
2023-02-01T01:17:09.338Z,4.60
2023-02-01T01:19:22.133Z,5.80
2023-02-01T01:21:35.678Z,3.00
2023-02-01T01:23:50.111Z,2.90
2023-02-01T01:26:03.160Z,3.10
2023-02-01T01:28:17.665Z,3.50
2023-02-01T01:30:30.530Z,5.00
2023-02-01T01:32:43.788Z,4.70
2023-02-01T01:34:56.324Z,5.70
2023-02-01T01:37:10.084Z,4.80
2023-02-01T01:39:23.192Z,3.60
2023-02-01T01:41:37.385Z,3.60
2023-02-01T01:44:04.362Z,3.30
2023-02-01T01:46:19.476Z,4.40
2023-02-01T01:48:35.107Z,11.80
2023-02-01T01:50:51.128Z,6.30
2023-02-01T01:53:07.705Z,6.90
2023-02-01T01:55:24.990Z,6.60
2023-02-01T01:57:42.620Z,6.60
2023-02-01T01:59:59.968Z,6.50
2023-02-01T02:02:14.780Z,4.40
2023-02-01T02:04:28.878Z,5.90
2023-02-01T02:06:50.395Z,8.10
2023-02-01T02:09:06.835Z,10.10
2023-02-01T02:11:22.132Z,7.40
2023-02-01T02:13:39.480Z,16.50
2023-02-01T02:16:01.351Z,7.10
2023-02-01T02:18:19.541Z,8.50
2023-02-01T02:20:51.170Z,5.50
2023-02-01T02:23:33.961Z,6.00
2023-02-01T02:26:10.173Z,7.90
2023-02-01T02:28:47.236Z,10.10
2023-02-01T02:31:29.586Z,5.70
2023-02-01T02:33:52.706Z,8.30
2023-02-01T02:36:11.803Z,6.10
2023-02-01T02:38:34.547Z,7.20
2023-02-01T02:40:56.502Z,9.20
2023-02-01T02:43:31.179Z,8.30
2023-02-01T02:46:08.670Z,8.90
2023-02-01T02:48:27.511Z,11.40
2023-02-01T02:51:02.683Z,4.60
2023-02-01T02:53:39.079Z,12.60
2023-02-01T02:55:54.335Z,5.30
2023-02-01T02:58:25.569Z,8.20
2023-02-01T03:00:57.105Z,18.20
2023-02-01T03:03:26.963Z,10.30
2023-02-01T03:05:47.533Z,8.90
2023-02-01T03:08:10.035Z,6.60
2023-02-01T03:10:28.275Z,9.00
2023-02-01T03:13:02.291Z,7.80
2023-02-01T03:15:17.655Z,5.60
2023-02-01T03:17:41.090Z,11.70
2023-02-01T03:19:56.320Z,9.40
2023-02-01T03:22:13.131Z,8.40
2023-02-01T03:24:35.161Z,11.10
2023-02-01T03:26:52.738Z,5.90
2023-02-01T03:29:12.928Z,12.00
2023-02-01T03:31:29.162Z,8.10
2023-02-01T03:33:42.371Z,7.90
2023-02-01T03:36:01.353Z,13.00
2023-02-01T03:38:25.129Z,4.90
2023-02-01T03:40:41.023Z,5.40
2023-02-01T03:42:59.552Z,7.40
2023-02-01T03:45:18.577Z,5.70
2023-02-01T03:47:34.852Z,8.60
2023-02-01T03:49:51.007Z,10.30
2023-02-01T03:52:05.864Z,11.90
2023-02-01T03:54:22.146Z,7.70
2023-02-01T03:56:41.310Z,4.80
2023-02-01T03:59:02.235Z,7.00
2023-02-01T04:01:19.320Z,6.30
2023-02-01T04:03:34.149Z,6.80
2023-02-01T04:05:47.518Z,6.40
2023-02-01T04:08:00.845Z,5.20
2023-02-01T04:10:18.667Z,6.50
2023-02-01T04:12:33.223Z,4.90
2023-02-01T04:14:46.740Z,7.10
2023-02-01T04:17:00.032Z,8.90
2023-02-01T04:19:13.539Z,8.60
2023-02-01T04:21:26.023Z,6.00
2023-02-01T04:23:39.953Z,5.70
2023-02-01T04:25:53.042Z,5.70
2023-02-01T04:28:06.922Z,7.30
2023-02-01T04:30:22.373Z,6.40
2023-02-01T04:32:36.006Z,4.60
2023-02-01T04:34:49.350Z,7.50
2023-02-01T04:37:02.149Z,17.10
2023-02-01T04:39:15.823Z,7.80
2023-02-01T04:41:28.731Z,9.70
2023-02-01T04:43:41.644Z,9.30
2023-02-01T04:45:58.552Z,10.20
2023-02-01T04:48:13.298Z,11.00
2023-02-01T04:50:26.561Z,7.10
2023-02-01T04:52:40.395Z,14.70
2023-02-01T04:54:53.059Z,9.50
2023-02-01T04:57:06.031Z,11.40
2023-02-01T04:59:19.081Z,13.40
2023-02-01T05:01:32.587Z,12.00
2023-02-01T05:03:45.692Z,6.90
2023-02-01T05:05:58.151Z,11.00
2023-02-01T05:08:11.068Z,5.80
2023-02-01T05:10:25.075Z,9.70
2023-02-01T05:12:54.211Z,8.10
2023-02-01T05:15:07.677Z,6.90
2023-02-01T05:17:21.178Z,12.00
2023-02-01T05:19:34.031Z,6.30
2023-02-01T05:21:46.687Z,11.20
2023-02-01T05:24:15.157Z,5.60
2023-02-01T05:26:28.653Z,7.60
2023-02-01T05:28:41.626Z,5.60
2023-02-01T05:30:54.576Z,9.10
2023-02-01T05:33:07.748Z,10.10
2023-02-01T05:35:21.335Z,6.70
2023-02-01T05:37:35.127Z,6.60
2023-02-01T05:39:47.961Z,9.70
2023-02-01T05:42:00.595Z,8.90
2023-02-01T05:44:14.707Z,9.20
2023-02-01T05:46:27.506Z,9.90
2023-02-01T05:48:40.983Z,10.60
2023-02-01T05:50:53.812Z,7.60
2023-02-01T05:53:06.486Z,6.90
2023-02-01T05:55:19.748Z,7.90
2023-02-01T05:57:32.525Z,9.70
2023-02-01T05:59:46.921Z,11.20
2023-02-01T06:02:00.865Z,8.80
2023-02-01T06:04:13.766Z,9.10
2023-02-01T06:06:26.839Z,7.70
2023-02-01T06:08:42.500Z,9.50
2023-02-01T06:10:55.620Z,7.50
2023-02-01T06:13:08.526Z,8.30
2023-02-01T06:15:21.740Z,13.00
2023-02-01T06:17:34.504Z,11.70
2023-02-01T06:19:50.401Z,9.20
2023-02-01T06:22:03.012Z,7.40
2023-02-01T06:24:16.024Z,11.70
2023-02-01T06:26:30.599Z,8.40
2023-02-01T06:28:43.126Z,7.80
2023-02-01T06:30:56.067Z,10.70
2023-02-01T06:33:08.962Z,7.60
2023-02-01T06:35:23.025Z,8.60
2023-02-01T06:37:36.221Z,10.30
2023-02-01T06:39:49.245Z,9.10
2023-02-01T06:42:01.908Z,10.00
2023-02-01T06:44:15.047Z,7.40
2023-02-01T06:46:27.775Z,9.20
2023-02-01T06:48:41.481Z,8.90
2023-02-01T06:50:55.261Z,9.10
2023-02-01T06:53:08.337Z,9.20
2023-02-01T06:55:21.183Z,9.90
2023-02-01T06:57:35.318Z,8.10
2023-02-01T06:59:48.574Z,5.10
2023-02-01T07:02:01.304Z,6.60
2023-02-01T07:04:16.623Z,7.40
2023-02-01T07:06:29.547Z,11.30
2023-02-01T07:08:44.805Z,10.50
2023-02-01T07:10:57.547Z,8.30
2023-02-01T07:13:11.085Z,11.90
2023-02-01T07:15:25.362Z,7.00
2023-02-01T07:17:38.238Z,7.00
2023-02-01T07:19:51.016Z,8.30
2023-02-01T07:22:05.888Z,7.80
2023-02-01T07:24:18.706Z,11.20
2023-02-01T07:26:31.943Z,7.00
2023-02-01T07:28:44.939Z,8.50
2023-02-01T07:30:57.833Z,8.80
2023-02-01T07:33:10.689Z,10.00
2023-02-01T07:35:23.664Z,10.80
2023-02-01T07:37:38.185Z,8.30
2023-02-01T07:39:51.248Z,11.20
2023-02-01T07:42:03.923Z,10.60
2023-02-01T07:44:17.073Z,10.10
2023-02-01T07:46:29.749Z,12.50
2023-02-01T07:48:42.543Z,11.70
2023-02-01T07:51:00.727Z,13.40
2023-02-01T07:53:14.564Z,14.70
2023-02-01T07:55:27.420Z,14.00
2023-02-01T07:57:40.379Z,17.50
2023-02-01T08:00:09.414Z,18.30
2023-02-01T08:02:24.941Z,20.40
2023-02-01T08:04:38.041Z,20.00
2023-02-01T08:06:51.009Z,15.00
2023-02-01T08:09:03.996Z,15.40
2023-02-01T08:11:18.039Z,15.50
2023-02-01T08:13:31.070Z,13.80
2023-02-01T08:15:44.251Z,19.80
2023-02-01T08:17:59.009Z,13.70
2023-02-01T08:20:13.965Z,12.90
2023-02-01T08:22:27.064Z,15.50
2023-02-01T08:24:43.177Z,11.50
2023-02-01T08:26:56.327Z,16.10
2023-02-01T08:29:11.272Z,12.10
2023-02-01T08:31:26.330Z,10.00
2023-02-01T08:33:39.766Z,13.50
2023-02-01T08:35:52.665Z,11.40
2023-02-01T08:38:05.383Z,16.70
2023-02-01T08:40:24.166Z,9.90
2023-02-01T08:42:55.997Z,8.30
2023-02-01T08:45:09.981Z,12.70
2023-02-01T08:47:22.650Z,13.50
2023-02-01T08:49:35.643Z,10.60
2023-02-01T08:51:48.230Z,10.90
2023-02-01T08:54:01.118Z,9.60
2023-02-01T08:56:16.003Z,7.30
2023-02-01T08:58:29.223Z,7.10
2023-02-01T09:00:41.736Z,9.80
2023-02-01T09:02:54.549Z,6.80
2023-02-01T09:05:08.026Z,9.30
2023-02-01T09:07:20.940Z,9.00
2023-02-01T09:09:34.788Z,10.70
2023-02-01T09:11:47.921Z,9.50
2023-02-01T09:14:01.159Z,11.60
2023-02-01T09:16:14.456Z,13.30
2023-02-01T09:18:27.558Z,13.10
2023-02-01T09:20:43.087Z,8.60
2023-02-01T09:22:56.759Z,12.20
2023-02-01T09:25:10.365Z,9.20
2023-02-01T09:27:24.052Z,12.70
2023-02-01T09:29:37.162Z,14.10
2023-02-01T09:32:02.892Z,12.60
2023-02-01T09:34:16.842Z,12.40
2023-02-01T09:36:31.337Z,11.90
2023-02-01T09:38:52.382Z,12.60
2023-02-01T09:41:11.336Z,14.40
2023-02-01T09:43:42.204Z,15.40
2023-02-01T09:46:03.676Z,14.30
2023-02-01T09:48:20.936Z,14.00
2023-02-01T09:50:40.078Z,16.00
2023-02-01T09:53:01.480Z,13.10
2023-02-01T09:55:21.036Z,17.40
2023-02-01T09:57:44.838Z,13.50
2023-02-01T10:00:05.103Z,14.10
2023-02-01T10:02:27.470Z,16.70
2023-02-01T10:04:40.473Z,13.90
2023-02-01T10:07:08.464Z,19.70
2023-02-01T10:09:33.120Z,15.20
2023-02-01T10:11:59.048Z,17.50
2023-02-01T10:14:17.543Z,17.80
2023-02-01T10:16:41.406Z,16.80
2023-02-01T10:19:25.468Z,17.50
2023-02-01T10:21:52.661Z,23.20
2023-02-01T10:24:36.193Z,18.20
2023-02-01T10:26:51.880Z,9.00
2023-02-01T10:29:08.308Z,12.40
2023-02-01T10:31:22.873Z,13.30
2023-02-01T10:33:40.677Z,15.20
2023-02-01T10:35:58.033Z,19.80
2023-02-01T10:38:21.417Z,20.00
2023-02-01T10:40:35.724Z,18.30
2023-02-01T10:42:49.276Z,21.80
2023-02-01T10:45:05.892Z,17.40
2023-02-01T10:47:19.172Z,15.60
2023-02-01T10:49:38.286Z,16.90
2023-02-01T10:51:56.841Z,13.80
2023-02-01T10:54:15.648Z,18.60
2023-02-01T10:56:33.518Z,17.40
2023-02-01T10:58:51.634Z,17.40
2023-02-01T11:01:07.836Z,22.90
2023-02-01T11:03:43.188Z,16.30
2023-02-01T11:05:56.679Z,18.40
2023-02-01T11:08:09.805Z,26.00
2023-02-01T11:10:42.492Z,21.30
2023-02-01T11:13:00.512Z,20.40
2023-02-01T11:15:26.565Z,20.70
2023-02-01T11:17:44.398Z,26.00
2023-02-01T11:20:07.730Z,21.60
2023-02-01T11:22:22.125Z,27.30
2023-02-01T11:24:40.361Z,23.00
2023-02-01T11:26:54.905Z,21.40
2023-02-01T11:29:09.463Z,24.10
2023-02-01T11:31:22.718Z,23.60
2023-02-01T11:33:38.310Z,22.30
2023-02-01T11:35:52.412Z,25.90
2023-02-01T11:38:15.093Z,29.30
2023-02-01T11:40:39.888Z,23.30
2023-02-01T11:43:03.796Z,21.00
2023-02-01T11:45:32.501Z,28.60
2023-02-01T11:47:50.945Z,25.80
2023-02-01T11:50:05.697Z,18.90
2023-02-01T11:52:26.013Z,23.30
2023-02-01T11:54:53.542Z,26.40
2023-02-01T11:57:20.594Z,23.40
2023-02-01T11:59:56.375Z,25.10
2023-02-01T12:02:35.670Z,24.40
2023-02-01T12:05:15.431Z,20.30
2023-02-01T12:07:33.078Z,22.40
2023-02-01T12:10:03.191Z,25.20
2023-02-01T12:12:26.886Z,23.10
2023-02-01T12:15:01.200Z,23.50
2023-02-01T12:17:41.924Z,23.30
2023-02-01T12:20:16.347Z,22.20
2023-02-01T12:22:40.925Z,21.70
2023-02-01T12:25:20.839Z,16.10
2023-02-01T12:28:00.080Z,16.90
2023-02-01T12:30:39.722Z,19.60
2023-02-01T12:33:05.356Z,23.40
2023-02-01T12:35:48.804Z,20.50
2023-02-01T12:38:19.396Z,16.20
2023-02-01T12:40:46.257Z,24.20
2023-02-01T12:43:07.204Z,20.70
2023-02-01T12:45:26.011Z,22.20
2023-02-01T12:47:44.780Z,17.90
2023-02-01T12:50:06.320Z,20.60
2023-02-01T12:52:24.438Z,26.00
2023-02-01T12:54:43.816Z,23.20
2023-02-01T12:57:02.700Z,17.50
2023-02-01T12:59:24.008Z,20.10
2023-02-01T13:01:43.473Z,19.50
2023-02-01T13:04:08.021Z,21.00
2023-02-01T13:06:24.191Z,21.90
2023-02-01T13:08:46.104Z,18.70
2023-02-01T13:11:07.434Z,18.10
2023-02-01T13:13:27.078Z,16.40
2023-02-01T13:15:45.264Z,20.40
2023-02-01T13:17:59.941Z,28.10
2023-02-01T13:20:26.108Z,16.70
2023-02-01T13:22:43.448Z,27.90
2023-02-01T13:25:01.012Z,18.10
2023-02-01T13:27:18.089Z,16.60
2023-02-01T13:29:33.041Z,20.60
2023-02-01T13:32:19.386Z,17.30
2023-02-01T13:35:08.091Z,18.50
2023-02-01T13:37:39.359Z,19.40
2023-02-01T13:40:09.097Z,15.80
2023-02-01T13:42:25.847Z,16.10
2023-02-01T13:44:42.835Z,15.40
2023-02-01T13:47:00.464Z,15.90
2023-02-01T13:49:20.531Z,20.30
2023-02-01T13:51:45.513Z,20.50
2023-02-01T13:53:59.684Z,19.10
2023-02-01T13:56:18.460Z,14.00
2023-02-01T13:58:38.768Z,21.90
2023-02-01T14:00:53.059Z,15.00
2023-02-01T14:03:22.952Z,15.50
2023-02-01T14:06:20.228Z,18.10
2023-02-01T14:08:44.624Z,15.70
2023-02-01T14:11:03.028Z,19.50
2023-02-01T14:13:31.408Z,21.40
2023-02-01T14:15:57.481Z,13.70
2023-02-01T14:18:47.822Z,18.40
2023-02-01T14:21:23.949Z,21.80
2023-02-01T14:23:43.626Z,19.20
2023-02-01T14:26:23.001Z,27.10
2023-02-01T14:28:37.020Z,18.70
2023-02-01T14:30:52.291Z,16.40
2023-02-01T14:33:16.781Z,20.30
2023-02-01T14:35:32.074Z,18.60
2023-02-01T14:37:48.294Z,16.40
2023-02-01T14:40:07.993Z,16.10
2023-02-01T14:42:29.143Z,16.00
2023-02-01T14:44:58.600Z,15.70
2023-02-01T14:47:38.132Z,14.80
2023-02-01T14:49:59.849Z,14.30
2023-02-01T14:52:20.463Z,14.40
2023-02-01T14:54:33.957Z,17.00
2023-02-01T14:56:48.907Z,17.70
2023-02-01T14:59:06.259Z,14.20
2023-02-01T15:01:31.412Z,16.70
2023-02-01T15:03:52.713Z,20.00
2023-02-01T15:06:08.022Z,17.60
2023-02-01T15:08:28.496Z,13.30
2023-02-01T15:10:51.837Z,16.00
2023-02-01T15:13:05.183Z,21.70
2023-02-01T15:15:24.039Z,12.30
2023-02-01T15:17:38.128Z,12.80
2023-02-01T15:19:59.865Z,14.90
2023-02-01T15:22:22.738Z,19.80
2023-02-01T15:24:36.172Z,10.60
2023-02-01T15:26:49.409Z,14.00
2023-02-01T15:29:03.140Z,12.10
2023-02-01T15:31:17.985Z,10.80
2023-02-01T15:33:32.118Z,13.00
2023-02-01T15:35:48.834Z,14.80
2023-02-01T15:38:39.845Z,12.70
2023-02-01T15:41:04.724Z,13.80
2023-02-01T15:43:20.150Z,12.00
2023-02-01T15:45:37.278Z,14.30
2023-02-01T15:47:55.080Z,11.80
2023-02-01T15:50:09.644Z,11.50
2023-02-01T15:52:30.487Z,11.40
2023-02-01T15:54:52.557Z,10.40
2023-02-01T15:57:07.899Z,8.50
2023-02-01T15:59:23.828Z,10.80
2023-02-01T16:01:43.145Z,12.90
2023-02-01T16:04:05.855Z,11.70
2023-02-01T16:06:31.142Z,10.30
2023-02-01T16:08:53.247Z,11.60
2023-02-01T16:11:26.235Z,13.50
2023-02-01T16:13:39.691Z,10.10
2023-02-01T16:15:53.043Z,7.60
2023-02-01T16:18:07.294Z,9.90
2023-02-01T16:20:20.860Z,12.90
2023-02-01T16:22:34.169Z,10.50
2023-02-01T16:24:46.989Z,10.90
2023-02-01T16:26:59.834Z,8.70
2023-02-01T16:29:12.889Z,7.40
2023-02-01T16:31:30.390Z,6.60
2023-02-01T16:33:43.069Z,10.30
2023-02-01T16:35:57.207Z,9.20
2023-02-01T16:38:14.843Z,7.00
2023-02-01T16:40:28.103Z,6.60
2023-02-01T16:42:41.798Z,7.80
2023-02-01T16:44:54.611Z,8.40
2023-02-01T16:47:12.639Z,8.50
2023-02-01T16:49:27.679Z,7.20
2023-02-01T16:51:44.611Z,10.60
2023-02-01T16:53:57.808Z,6.60
2023-02-01T16:56:17.010Z,6.90
2023-02-01T16:58:30.878Z,6.40
2023-02-01T17:00:43.842Z,9.80
2023-02-01T17:02:57.759Z,6.70
2023-02-01T17:05:11.326Z,7.40
2023-02-01T17:07:25.414Z,11.90
2023-02-01T17:09:38.863Z,8.00
2023-02-01T17:11:52.725Z,6.80
2023-02-01T17:14:17.720Z,7.40
2023-02-01T17:16:33.003Z,13.00
2023-02-01T17:18:46.152Z,9.00
2023-02-01T17:20:58.897Z,4.40
2023-02-01T17:23:12.284Z,6.50
2023-02-01T17:25:27.276Z,5.50
2023-02-01T17:27:40.061Z,5.80
2023-02-01T17:29:54.956Z,5.90
2023-02-01T17:32:14.048Z,8.60
2023-02-01T17:34:26.864Z,5.40
2023-02-01T17:36:41.045Z,6.00
2023-02-01T17:39:04.764Z,6.60
2023-02-01T17:41:19.923Z,7.40
2023-02-01T17:43:33.138Z,5.90
2023-02-01T17:45:52.817Z,4.00
2023-02-01T17:48:05.967Z,11.70
2023-02-01T17:50:19.326Z,7.00
2023-02-01T17:52:32.587Z,7.70
2023-02-01T17:54:46.041Z,3.10
2023-02-01T17:57:01.372Z,8.20
2023-02-01T17:59:16.272Z,5.40
2023-02-01T18:01:31.361Z,7.60
2023-02-01T18:03:48.150Z,8.30
2023-02-01T18:06:02.566Z,8.50
2023-02-01T18:08:15.277Z,8.30
2023-02-01T18:10:28.104Z,5.60
2023-02-01T18:12:40.848Z,8.10
2023-02-01T18:14:53.535Z,6.10
2023-02-01T18:17:06.881Z,7.60
2023-02-01T18:19:19.800Z,10.40
2023-02-01T18:21:38.364Z,8.10
2023-02-01T18:23:51.469Z,9.70
2023-02-01T18:26:05.355Z,6.50
2023-02-01T18:28:18.548Z,6.40
2023-02-01T18:30:34.811Z,4.70
2023-02-01T18:32:48.120Z,5.80
2023-02-01T18:35:01.634Z,4.30
2023-02-01T18:37:14.624Z,9.10
2023-02-01T18:39:27.676Z,5.70
2023-02-01T18:41:41.581Z,5.90
2023-02-01T18:43:55.144Z,7.00
2023-02-01T18:46:08.399Z,6.10
2023-02-01T18:48:23.463Z,7.50
2023-02-01T18:50:38.646Z,4.70
2023-02-01T18:52:55.822Z,5.90
2023-02-01T18:55:09.274Z,3.80
2023-02-01T18:57:22.552Z,6.60
2023-02-01T18:59:35.501Z,5.00
2023-02-01T19:01:48.452Z,4.60
2023-02-01T19:04:03.767Z,4.80
2023-02-01T19:06:33.090Z,10.50
2023-02-01T19:08:47.901Z,4.10
2023-02-01T19:11:01.697Z,3.90
2023-02-01T19:13:16.547Z,4.20
2023-02-01T19:15:30.192Z,3.60
2023-02-01T19:17:43.307Z,5.00
2023-02-01T19:19:56.328Z,4.70
2023-02-01T19:22:08.945Z,4.30
2023-02-01T19:24:21.639Z,5.30
2023-02-01T19:26:36.347Z,6.20
2023-02-01T19:28:50.002Z,4.10
2023-02-01T19:31:10.195Z,4.00
2023-02-01T19:33:23.310Z,5.10
2023-02-01T19:35:35.965Z,6.90
2023-02-01T19:37:49.539Z,7.00
2023-02-01T19:40:02.347Z,4.40
2023-02-01T19:42:15.305Z,3.10
2023-02-01T19:44:29.226Z,5.50
2023-02-01T19:46:42.140Z,5.00
2023-02-01T19:48:55.510Z,3.90
2023-02-01T19:51:09.505Z,3.60
2023-02-01T19:53:26.037Z,5.30
2023-02-01T19:55:38.857Z,5.80
2023-02-01T19:57:53.145Z,4.80
2023-02-01T20:00:06.880Z,5.10
2023-02-01T20:02:20.784Z,5.10
2023-02-01T20:04:33.846Z,3.90
2023-02-01T20:06:49.975Z,5.30
2023-02-01T20:09:03.211Z,6.10
2023-02-01T20:11:16.638Z,6.30
2023-02-01T20:13:29.392Z,6.10
2023-02-01T20:15:43.152Z,3.90
2023-02-01T20:17:55.664Z,5.20
2023-02-01T20:20:08.787Z,4.70
2023-02-01T20:22:24.706Z,4.00
2023-02-01T20:24:37.059Z,4.50
2023-02-01T20:26:51.845Z,4.90
2023-02-01T20:29:05.031Z,5.90
2023-02-01T20:31:18.370Z,4.00
2023-02-01T20:33:31.769Z,3.80
2023-02-01T20:35:46.879Z,3.50
2023-02-01T20:38:00.252Z,3.90
2023-02-01T20:40:17.035Z,5.20
2023-02-01T20:42:29.563Z,5.60
2023-02-01T20:44:42.679Z,5.40
2023-02-01T20:46:55.391Z,4.60
2023-02-01T20:49:08.078Z,4.90
2023-02-01T20:51:22.932Z,3.90
2023-02-01T20:53:35.807Z,5.90
2023-02-01T20:55:48.903Z,6.00
2023-02-01T20:58:01.723Z,5.10
2023-02-01T21:00:17.549Z,3.10
2023-02-01T21:02:30.636Z,3.60
2023-02-01T21:04:43.686Z,3.10
2023-02-01T21:06:57.672Z,5.40
2023-02-01T21:09:10.472Z,4.10
2023-02-01T21:11:23.105Z,5.40
2023-02-01T21:13:41.593Z,4.80
2023-02-01T21:15:54.516Z,3.10
2023-02-01T21:18:10.171Z,7.10
2023-02-01T21:20:23.751Z,6.10
2023-02-01T21:22:36.736Z,4.90
2023-02-01T21:24:49.818Z,4.10
2023-02-01T21:27:04.059Z,4.60
2023-02-01T21:29:18.645Z,4.50
2023-02-01T21:31:31.331Z,4.60
2023-02-01T21:33:44.321Z,4.00
2023-02-01T21:35:58.176Z,5.00
2023-02-01T21:38:11.942Z,4.60
2023-02-01T21:40:26.515Z,5.10
2023-02-01T21:42:41.752Z,3.10
2023-02-01T21:44:54.483Z,4.80
2023-02-01T21:47:09.045Z,4.50
2023-02-01T21:49:22.227Z,6.60
2023-02-01T21:51:36.074Z,5.60
2023-02-01T21:53:49.315Z,5.60
2023-02-01T21:56:02.766Z,3.80
2023-02-01T21:58:16.143Z,6.70
2023-02-01T22:00:29.490Z,5.50
2023-02-01T22:02:42.548Z,4.70
2023-02-01T22:04:55.769Z,5.40
2023-02-01T22:07:08.621Z,7.60
2023-02-01T22:09:23.840Z,10.30
2023-02-01T22:11:36.849Z,4.20
2023-02-01T22:13:49.658Z,5.40
2023-02-01T22:16:04.003Z,3.80
2023-02-01T22:18:17.532Z,5.50
2023-02-01T22:20:30.777Z,4.30
2023-02-01T22:22:43.921Z,4.30
2023-02-01T22:24:57.065Z,3.80
2023-02-01T22:27:13.648Z,4.00
2023-02-01T22:29:27.999Z,5.20
2023-02-01T22:31:41.259Z,3.90
2023-02-01T22:33:55.487Z,4.70
2023-02-01T22:36:08.997Z,5.60
2023-02-01T22:38:22.094Z,6.00
2023-02-01T22:40:34.766Z,5.70
2023-02-01T22:42:47.779Z,3.70
2023-02-01T22:45:02.438Z,5.00
2023-02-01T22:47:15.340Z,4.70
2023-02-01T22:49:28.355Z,4.00
2023-02-01T22:51:42.358Z,2.90
2023-02-01T22:53:58.885Z,6.60
2023-02-01T22:56:14.091Z,6.40
2023-02-01T22:58:27.122Z,6.20
2023-02-01T23:00:39.922Z,3.90
2023-02-01T23:02:52.925Z,5.60
2023-02-01T23:05:06.319Z,3.90
2023-02-01T23:07:19.853Z,6.80
2023-02-01T23:09:33.149Z,7.00
2023-02-01T23:11:46.515Z,4.60
2023-02-01T23:13:59.386Z,4.50
2023-02-01T23:16:14.375Z,5.10
2023-02-01T23:18:29.232Z,3.90
2023-02-01T23:20:43.381Z,4.80
2023-02-01T23:22:56.307Z,5.10
2023-02-01T23:25:09.499Z,5.30
2023-02-01T23:27:22.374Z,7.10
2023-02-01T23:29:36.045Z,5.50
2023-02-01T23:31:49.188Z,4.30
2023-02-01T23:34:02.887Z,5.60
2023-02-01T23:36:20.299Z,5.80
2023-02-01T23:38:33.649Z,4.20
2023-02-01T23:40:46.548Z,6.10
2023-02-01T23:43:12.231Z,8.90
2023-02-01T23:45:25.332Z,5.30
2023-02-01T23:47:37.992Z,5.00
2023-02-01T23:49:50.794Z,10.20
2023-02-01T23:52:03.452Z,6.80
2023-02-01T23:54:17.026Z,2.80
2023-02-01T23:56:32.427Z,4.60
2023-02-01T23:58:45.395Z,4.00
